Leggett, Texas
Current Conditions -  °F | °C
As of 7:53 AM on Monday 26 Jan 2015 (Local Time) from KLFK Reporting Station
Clear Clear  
Wind Chill: 40°   Ceiling: Unl
Heat Index: 40°   Visibility: 10mi
Dew Point: 31°   Wind: 3mph
Humidity: 70%   Direction: 330°NNW
Pressure: 30.22"   Gusts: NA
Location:  30.82°N, 94.87°W
Report Text: KLFK 261353Z AUTO 33003KT 10SM CLR 04/M01 A3022 RMK AO2 SLP232 T00441006
Loading
Personal Weather Stations






























Interactive Weather Map New forecast layout! Learn more

10-Day Weather Forecast

Advertisements
Track Severe Weather on mobile